createdAt,value
2018-10-01T00:01:12.645Z,9.57
2018-10-01T00:06:16.211Z,7.77
2018-10-01T00:11:20.075Z,12.00
2018-10-01T00:16:23.619Z,10.60
2018-10-01T00:21:32.388Z,9.23
2018-10-01T00:26:35.887Z,8.73
2018-10-01T00:31:39.653Z,9.43
2018-10-01T00:36:43.481Z,9.93
2018-10-01T00:41:47.740Z,11.37
2018-10-01T00:46:51.542Z,13.57
2018-10-01T00:51:55.083Z,13.98
2018-10-01T00:56:58.594Z,12.33
2018-10-01T01:02:02.079Z,9.33
2018-10-01T01:07:05.677Z,11.10
2018-10-01T01:12:09.246Z,14.23
2018-10-01T01:17:13.478Z,17.42
2018-10-01T01:22:18.029Z,14.03
2018-10-01T01:27:22.378Z,14.13
2018-10-01T01:32:26.187Z,21.17
2018-10-01T01:37:29.693Z,14.20
2018-10-01T01:42:33.336Z,14.37
2018-10-01T01:47:37.026Z,16.73
2018-10-01T01:52:41.208Z,14.13
2018-10-01T01:57:45.009Z,16.23
2018-10-01T02:02:49.002Z,17.83
2018-10-01T02:07:52.558Z,12.23
2018-10-01T02:12:56.102Z,14.15
2018-10-01T02:17:59.581Z,13.50
2018-10-01T02:23:03.096Z,13.30
2018-10-01T02:28:07.061Z,13.20
2018-10-01T02:33:10.736Z,18.43
2018-10-01T02:38:14.956Z,18.57
2018-10-01T02:43:19.030Z,14.93
2018-10-01T02:48:22.530Z,17.73
2018-10-01T02:53:31.152Z,18.13
2018-10-01T02:58:34.651Z,14.43
2018-10-01T03:03:38.171Z,14.20
2018-10-01T03:08:41.679Z,18.10
2018-10-01T03:13:45.678Z,12.37
2018-10-01T03:18:49.701Z,13.00
2018-10-01T03:23:53.251Z,14.67
2018-10-01T03:28:57.017Z,14.17
2018-10-01T03:34:00.616Z,10.40
2018-10-01T03:39:05.594Z,13.97
2018-10-01T03:44:10.393Z,16.23
2018-10-01T03:49:15.036Z,11.80
2018-10-01T03:54:18.519Z,9.97
2018-10-01T03:59:22.018Z,17.57
2018-10-01T04:04:25.541Z,12.90
2018-10-01T04:09:29.039Z,10.87
2018-10-01T04:14:32.918Z,11.27
2018-10-01T04:19:36.651Z,13.60
2018-10-01T04:24:40.750Z,12.57
2018-10-01T04:29:45.161Z,9.40
2018-10-01T04:34:48.761Z,11.47
2018-10-01T04:39:52.266Z,8.53
2018-10-01T04:44:55.754Z,10.30
2018-10-01T04:49:59.335Z,13.23
2018-10-01T04:55:03.537Z,11.87
2018-10-01T05:00:08.841Z,13.23
2018-10-01T05:05:12.576Z,12.80
2018-10-01T05:10:16.110Z,8.40
2018-10-01T05:15:19.657Z,7.33
2018-10-01T05:20:23.184Z,6.97
2018-10-01T05:25:26.766Z,7.70
2018-10-01T05:30:30.422Z,16.02
2018-10-01T05:35:34.420Z,11.30
2018-10-01T05:40:38.144Z,13.53
2018-10-01T05:45:42.160Z,17.57
2018-10-01T05:50:46.425Z,11.80
2018-10-01T05:55:50.009Z,12.07
2018-10-01T06:00:53.607Z,12.47
2018-10-01T06:05:57.098Z,18.63
2018-10-01T06:11:00.575Z,17.25
2018-10-01T06:16:04.127Z,22.60
2018-10-01T06:21:08.296Z,24.03
2018-10-01T06:26:12.258Z,26.10
2018-10-01T06:31:15.771Z,20.40
2018-10-01T06:36:19.601Z,19.60
2018-10-01T06:41:23.090Z,18.23
2018-10-01T06:46:26.585Z,25.03
2018-10-01T06:51:30.080Z,24.03
2018-10-01T06:56:34.094Z,28.70
2018-10-01T07:01:37.748Z,29.60
2018-10-01T07:06:41.568Z,22.93
2018-10-01T07:11:46.192Z,18.67
2018-10-01T07:16:49.770Z,25.60
2018-10-01T07:21:53.293Z,21.07
2018-10-01T07:26:57.023Z,24.17
2018-10-01T07:32:01.259Z,20.80
2018-10-01T07:37:05.037Z,23.73
2018-10-01T07:42:09.141Z,24.73
2018-10-01T07:47:12.652Z,20.20
2018-10-01T07:52:16.269Z,19.17
2018-10-01T07:57:19.848Z,21.63
2018-10-01T08:02:23.426Z,19.73
2018-10-01T08:07:28.549Z,29.77
2018-10-01T08:12:32.369Z,20.10
2018-10-01T08:17:35.893Z,25.10
2018-10-01T08:22:39.402Z,22.73
2018-10-01T08:27:42.890Z,28.13
2018-10-01T08:32:46.403Z,24.00
2018-10-01T08:37:49.946Z,21.50
2018-10-01T08:42:53.463Z,22.87
2018-10-01T08:47:57.205Z,18.17
2018-10-01T08:53:21.711Z,18.63
2018-10-01T08:58:25.279Z,24.47
2018-10-01T09:03:28.761Z,22.03
2018-10-01T09:08:32.396Z,21.37
2018-10-01T09:13:36.572Z,20.33
2018-10-01T09:18:40.417Z,17.13
2018-10-01T09:23:44.217Z,26.27
2018-10-01T09:28:49.696Z,22.57
2018-10-01T09:33:53.572Z,17.60
2018-10-01T09:38:57.485Z,19.35
2018-10-01T09:44:01.255Z,17.57
2018-10-01T09:49:05.092Z,18.33
2018-10-01T09:54:08.612Z,20.50
2018-10-01T09:59:12.105Z,11.93
2018-10-01T10:04:15.648Z,12.50
2018-10-01T10:09:19.951Z,20.37
2018-10-01T10:14:23.696Z,18.17
2018-10-01T10:19:27.301Z,16.45
2018-10-01T10:24:30.912Z,20.40
2018-10-01T10:29:34.420Z,16.57
2018-10-01T10:34:38.054Z,18.87
2018-10-01T10:39:41.593Z,18.53
2018-10-01T10:44:45.139Z,20.33
2018-10-01T10:49:48.646Z,14.20
2018-10-01T10:54:52.165Z,22.07
2018-10-01T10:59:56.308Z,18.10
2018-10-01T11:04:59.884Z,14.90
2018-10-01T11:10:03.750Z,8.63
2018-10-01T11:15:07.959Z,16.13
2018-10-01T11:20:11.885Z,13.53
2018-10-01T11:25:15.480Z,8.80
2018-10-01T11:30:18.939Z,15.27
2018-10-01T11:35:22.570Z,10.07
2018-10-01T11:40:26.105Z,11.70
2018-10-01T11:45:29.859Z,6.70
2018-10-01T11:50:33.953Z,8.17
2018-10-01T11:55:37.771Z,10.87
2018-10-01T12:00:41.517Z,6.60
2018-10-01T12:05:44.981Z,11.83
2018-10-01T12:10:48.527Z,12.07
2018-10-01T12:15:52.227Z,8.97
2018-10-01T12:20:56.062Z,8.40
2018-10-01T12:26:00.645Z,5.93
2018-10-01T12:31:04.191Z,6.33
2018-10-01T12:36:07.817Z,8.73
2018-10-01T12:41:11.283Z,7.70
2018-10-01T12:46:14.864Z,6.87
2018-10-01T12:51:18.456Z,8.03
2018-10-01T12:56:22.078Z,7.87
2018-10-01T13:01:26.012Z,12.43
2018-10-01T13:06:30.208Z,6.73
2018-10-01T13:11:33.806Z,8.37
2018-10-01T13:16:38.275Z,10.80
2018-10-01T13:21:41.781Z,7.67
2018-10-01T13:26:45.325Z,6.37
2018-10-01T13:31:49.831Z,7.57
2018-10-01T13:36:53.473Z,8.87
2018-10-01T13:41:57.996Z,9.30
2018-10-01T13:47:01.653Z,6.97
2018-10-01T13:52:05.173Z,6.17
2018-10-01T13:57:08.666Z,6.50
2018-10-01T14:02:12.367Z,6.20
2018-10-01T14:07:16.219Z,9.13
2018-10-01T14:12:20.099Z,1.70
2018-10-01T14:17:23.754Z,4.70
2018-10-01T14:22:27.600Z,5.80
2018-10-01T14:27:31.332Z,5.37
2018-10-01T14:32:34.883Z,8.25
2018-10-01T14:37:38.368Z,6.03
2018-10-01T14:42:42.214Z,7.33
2018-10-01T14:47:45.702Z,1.33
2018-10-01T14:52:49.449Z,2.40
2018-10-01T14:57:53.486Z,2.97
2018-10-01T15:02:57.105Z,5.40
2018-10-01T15:08:01.680Z,3.07
2018-10-01T15:13:06.265Z,2.97
2018-10-01T15:18:09.778Z,1.83
2018-10-01T15:23:13.365Z,2.40
2018-10-01T15:28:17.018Z,4.73
2018-10-01T15:33:20.887Z,3.33
2018-10-01T15:38:24.668Z,5.27
2018-10-01T15:43:28.232Z,6.20
2018-10-01T15:48:31.922Z,6.13
2018-10-01T15:53:35.383Z,5.73
2018-10-01T15:58:38.927Z,10.43
2018-10-01T16:03:42.474Z,7.03
2018-10-01T16:08:45.970Z,3.37
2018-10-01T16:13:49.533Z,4.70
2018-10-01T16:18:53.130Z,1.90
2018-10-01T16:23:57.268Z,4.00
2018-10-01T16:29:01.520Z,4.47
2018-10-01T16:34:06.157Z,5.43
2018-10-01T16:39:11.798Z,3.30
2018-10-01T16:44:15.451Z,1.80
2018-10-01T16:49:19.334Z,4.67
2018-10-01T16:54:22.932Z,2.93
2018-10-01T16:59:26.697Z,3.10
2018-10-01T17:04:30.190Z,5.07
2018-10-01T17:09:33.697Z,2.07
2018-10-01T17:14:37.191Z,3.83
2018-10-01T17:19:40.943Z,1.42
2018-10-01T17:24:44.761Z,1.97
2018-10-01T17:29:49.012Z,5.30
2018-10-01T17:34:53.508Z,2.13
2018-10-01T17:39:57.103Z,3.40
2018-10-01T17:45:00.809Z,3.23
2018-10-01T17:50:04.496Z,5.10
2018-10-01T17:55:08.286Z,4.07
2018-10-01T18:00:12.240Z,1.90
2018-10-01T18:05:15.853Z,6.93
2018-10-01T18:10:19.606Z,3.40
2018-10-01T18:15:23.367Z,6.57
2018-10-01T18:20:27.011Z,3.77
2018-10-01T18:25:30.556Z,4.57
2018-10-01T18:35:42.975Z,3.23
2018-10-01T18:40:46.706Z,6.33
2018-10-01T18:45:50.300Z,4.73
2018-10-01T18:50:54.356Z,4.57
2018-10-01T18:55:58.285Z,2.30
2018-10-01T19:01:02.187Z,4.87
2018-10-01T19:06:06.266Z,4.33
2018-10-01T19:11:09.885Z,4.05
2018-10-01T19:16:13.350Z,2.80
2018-10-01T19:21:17.042Z,3.83
2018-10-01T19:26:21.524Z,2.80
2018-10-01T19:31:25.447Z,4.10
2018-10-01T19:36:29.280Z,3.43
2018-10-01T19:41:32.996Z,3.20
2018-10-01T19:46:36.580Z,4.37
2018-10-01T19:51:40.072Z,3.27
2018-10-01T19:56:43.740Z,5.90
2018-10-01T20:01:47.270Z,4.40
2018-10-01T20:06:51.064Z,2.17
2018-10-01T20:11:55.690Z,2.07
2018-10-01T20:17:00.378Z,1.47
2018-10-01T20:22:04.335Z,2.27
2018-10-01T20:27:08.231Z,2.35
2018-10-01T20:32:12.272Z,2.80
2018-10-01T20:37:16.110Z,5.30
2018-10-01T20:42:20.331Z,3.13
2018-10-01T20:47:24.595Z,5.33
2018-10-01T20:52:28.145Z,7.13
2018-10-01T20:57:31.589Z,7.03
2018-10-01T21:02:35.188Z,4.93
2018-10-01T21:07:38.655Z,5.60
2018-10-01T21:12:42.526Z,2.03
2018-10-01T21:17:46.633Z,3.13
2018-10-01T21:22:50.338Z,3.40
2018-10-01T21:27:54.143Z,5.37
2018-10-01T21:32:59.185Z,4.70
2018-10-01T21:38:03.144Z,3.43
2018-10-01T21:43:06.953Z,9.27
2018-10-01T21:48:10.624Z,7.58
2018-10-01T21:53:15.189Z,4.30
2018-10-01T21:58:18.700Z,4.07
2018-10-01T22:03:22.296Z,1.53
2018-10-01T22:08:26.047Z,4.23
2018-10-01T22:13:29.840Z,5.63
2018-10-01T22:18:33.709Z,2.83
2018-10-01T22:23:38.145Z,7.00
2018-10-01T22:28:42.270Z,4.40
2018-10-01T22:33:45.880Z,3.97
2018-10-01T22:38:49.346Z,5.50
2018-10-01T22:43:53.500Z,3.47
2018-10-01T22:48:57.597Z,2.93
2018-10-01T22:54:01.354Z,3.63
2018-10-01T22:59:06.113Z,5.90
2018-10-01T23:04:09.643Z,4.90
2018-10-01T23:09:13.135Z,3.05
2018-10-01T23:14:16.608Z,3.13
2018-10-01T23:19:20.579Z,5.43
2018-10-01T23:24:24.863Z,4.40
2018-10-01T23:29:29.622Z,4.00
2018-10-01T23:34:33.370Z,4.53
2018-10-01T23:39:37.026Z,7.63
2018-10-01T23:44:40.525Z,6.40
2018-10-01T23:49:44.517Z,6.77
2018-10-01T23:54:49.319Z,5.30
2018-10-01T23:59:52.926Z,2.90
